Flight Track Log - Related Links

Times and Time Zones

All times are in EDT time to prevent confusion due to time zone crossing. See the AMF1324 flight status page for this flight to view local times or setup timezone preferences in your user account.

Time Position Orientation Groundspeed Altitude Reporting Facility
EDT Latitude Longitude Course Direction KTS MPH feet Rate Location/Type
Wed 06:47:17 AM 42.9333 -78.7333 270° West 157 181 1,700  Level Buffalo TRACON
Wed 06:47:23 AM 42.9333 -78.7500 270° West 158 182 2,000 3,000 Climbing Buffalo TRACON
Wed 06:48:23 AM 42.8833 -78.7333 166° South 199 229 5,000 2,430 Climbing Buffalo TRACON
Wed 06:49:24 AM 42.8833 -78.6500 90° East 219 252 6,900 1,730 Climbing Buffalo TRACON
Wed 06:50:14 AM 42.8844 -78.5769 89° East 239 275 8,200 1,838 Climbing Cleveland Center
Wed 06:51:15 AM 42.8808 -78.4914 93° East 245 282 10,300 2,146 Climbing Cleveland Center
Wed 06:52:17 AM 42.8761 -78.4086 94° East 223 257 12,600 1,366 Climbing Cleveland Center
Wed 06:53:18 AM 42.8700 -78.3217 95° East 234 269 13,100 244 Climbing Cleveland Center
Wed 06:54:20 AM 42.8622 -78.2194 96° East 267 307 13,100  Level Cleveland Center
Wed 06:55:21 AM 42.8486 -78.1169 100° East 276 318 13,100  Level Cleveland Center
Wed 06:56:22 AM 42.8081 -77.9997 115° Southeast 284 327 13,100  Level Cleveland Center
Wed 06:57:24 AM 42.7739 -77.9003 115° Southeast 289 333 13,100 -49 Level Cleveland Center
Wed 06:58:25 AM 42.7397 -77.8039 116° Southeast 285 328 13,000 -49 Descending Cleveland Center
Wed 06:59:27 AM 42.7050 -77.7061 116° Southeast 285 328 13,000  Level Cleveland Center
Wed 07:00:28 AM 42.6733 -77.6161 116° Southeast 285 328 13,000  Level Cleveland Center
Wed 07:01:30 AM 42.6428 -77.5208 114° Southeast 279 321 13,000  Level Cleveland Center
Wed 07:02:31 AM 42.6056 -77.4108 115° Southeast 282 325 13,000  Level Cleveland Center
Wed 07:03:33 AM 42.5733 -77.3119 114° Southeast 283 326 13,000 -195 Level Cleveland Center
Wed 07:04:34 AM 42.5425 -77.2147 113° Southeast 283 326 12,600 -683 Descending Cleveland Center
Wed 07:05:36 AM 42.5125 -77.1131 112° Southeast 287 330 11,600 -829 Descending Cleveland Center
Wed 07:06:37 AM 42.4794 -77.0150 115° Southeast 288 331 10,900 -780 Descending Cleveland Center
Wed 07:07:39 AM 42.4444 -76.9214 117° Southeast 283 326 10,000 -878 Descending Cleveland Center
Wed 07:08:40 AM 42.3981 -76.8108 120° Southeast 282 325 9,100 -568 Descending Cleveland Center
Wed 07:09:14 AM 42.3761 -76.7606 121° Southeast 281 323 9,100  Level New York Center
Wed 07:10:14 AM 42.3467 -76.6819 117° Southeast 276 318 9,100 67 Level New York Center
Wed 07:10:44 AM 42.3361 -76.6303 105° East 264 304 9,200 66 Climbing Cleveland Center
Wed 07:11:45 AM 42.3022 -76.5408 117° Southeast 267 307 9,200 -49 Level Cleveland Center
Wed 07:12:47 AM 42.2642 -76.4581 122° Southeast 266 306 9,100 -242 Descending Cleveland Center
Wed 07:13:49 AM 42.2244 -76.3722 122° Southeast 262 302 8,700 -1,024 Descending Cleveland Center
Wed 07:14:50 AM 42.1847 -76.2881 122° Southeast 262 302 7,000 -1,610 Descending Cleveland Center
Wed 07:15:52 AM 42.1458 -76.2078 123° Southeast 262 302 5,400 -919 Descending Cleveland Center
Wed 07:16:54 AM 42.1011 -76.1169 124° Southeast 254 292 5,100 -592 Descending Cleveland Center
Wed 07:18:14 AM 42.1067 -76.0289 85° East 197 227 4,000 -814 Descending New York Center
Wed 07:19:14 AM 42.1356 -75.9864 47° Northeast 155 178 3,200 -700 Descending New York Center
Wed 07:20:14 AM 42.1644 -75.9494 43° Northeast 143 165 2,600 -500 Descending New York Center
Wed 07:21:14 AM 42.1894 -75.9458 North 118 136 2,200 -400 Descending New York Center

Login

Don't have an account? Register now (free) for customized features, flight alerts, and more!